createdAt,value
2023-05-07T00:01:58.585Z,17.87
2023-05-07T00:05:01.785Z,15.20
2023-05-07T00:08:05.220Z,17.23
2023-05-07T00:11:09.598Z,15.13
2023-05-07T00:14:12.599Z,15.23
2023-05-07T00:17:17.390Z,16.20
2023-05-07T00:20:20.814Z,16.20
2023-05-07T00:23:24.112Z,14.73
2023-05-07T00:26:28.504Z,13.87
2023-05-07T00:29:31.499Z,14.73
2023-05-07T00:32:35.860Z,15.47
2023-05-07T00:35:40.537Z,16.50
2023-05-07T00:38:46.483Z,15.13
2023-05-07T00:41:52.398Z,13.83
2023-05-07T00:44:56.154Z,14.43
2023-05-07T00:48:01.945Z,14.97
2023-05-07T00:51:05.542Z,14.03
2023-05-07T00:54:08.877Z,14.53
2023-05-07T00:57:13.441Z,14.90
2023-05-07T01:00:16.945Z,14.80
2023-05-07T01:03:20.035Z,15.60
2023-05-07T01:06:25.868Z,14.80
2023-05-07T01:09:30.639Z,13.73
2023-05-07T01:12:35.425Z,14.53
2023-05-07T01:15:38.877Z,14.13
2023-05-07T01:18:41.965Z,15.80
2023-05-07T01:21:48.756Z,15.23
2023-05-07T01:24:53.480Z,15.93
2023-05-07T01:27:56.536Z,16.27
2023-05-07T01:31:05.079Z,14.00
2023-05-07T01:34:10.965Z,15.43
2023-05-07T01:37:15.124Z,14.67
2023-05-07T01:40:20.162Z,13.90
2023-05-07T01:43:23.280Z,14.03
2023-05-07T01:46:28.372Z,14.50
2023-05-07T01:49:31.834Z,13.97
2023-05-07T01:52:34.881Z,14.27
2023-05-07T01:55:39.382Z,14.30
2023-05-07T01:58:42.368Z,13.43
2023-05-07T02:01:45.851Z,13.53
2023-05-07T02:04:48.855Z,14.13
2023-05-07T02:07:51.854Z,13.50
2023-05-07T02:10:56.192Z,14.10
2023-05-07T02:13:59.180Z,12.93
2023-05-07T02:17:02.113Z,13.43
2023-05-07T02:20:05.841Z,15.30
2023-05-07T02:23:08.813Z,14.70
2023-05-07T02:26:13.221Z,15.13
2023-05-07T02:29:16.256Z,14.13
2023-05-07T02:32:19.324Z,14.20
2023-05-07T02:35:22.356Z,15.43
2023-05-07T02:38:25.397Z,15.30
2023-05-07T02:41:31.743Z,15.63
2023-05-07T02:44:36.535Z,15.23
2023-05-07T02:47:39.541Z,15.20
2023-05-07T02:50:42.470Z,15.13
2023-05-07T02:53:47.366Z,14.40
2023-05-07T02:56:51.783Z,14.23
2023-05-07T02:59:54.799Z,13.97
2023-05-07T03:02:58.004Z,14.10
2023-05-07T03:06:01.000Z,13.47
2023-05-07T03:09:04.081Z,14.53
2023-05-07T03:12:09.017Z,13.60
2023-05-07T03:15:13.685Z,12.77
2023-05-07T03:18:16.973Z,13.80
2023-05-07T03:21:20.105Z,13.27
2023-05-07T03:24:23.195Z,13.60
2023-05-07T03:27:27.942Z,13.63
2023-05-07T03:30:31.091Z,12.83
2023-05-07T03:33:35.496Z,13.33
2023-05-07T03:36:38.457Z,13.50
2023-05-07T03:39:41.435Z,13.83
2023-05-07T03:42:45.923Z,14.43
2023-05-07T03:45:48.964Z,13.67
2023-05-07T03:48:51.953Z,14.37
2023-05-07T03:51:54.935Z,13.20
2023-05-07T03:54:57.964Z,14.17
2023-05-07T03:58:02.344Z,13.87
2023-05-07T04:01:05.750Z,13.30
2023-05-07T04:04:08.781Z,13.17
2023-05-07T04:07:12.096Z,12.53
2023-05-07T04:10:15.535Z,13.73
2023-05-07T04:13:20.002Z,13.40
2023-05-07T04:16:23.341Z,13.40
2023-05-07T04:19:26.448Z,13.30
2023-05-07T04:22:29.597Z,12.67
2023-05-07T04:25:32.669Z,12.50
2023-05-07T04:28:37.319Z,13.10
2023-05-07T04:31:40.402Z,12.80
2023-05-07T04:34:43.529Z,11.57
2023-05-07T04:37:46.557Z,11.93
2023-05-07T04:40:49.471Z,11.80
2023-05-07T04:43:53.969Z,11.33
2023-05-07T04:46:56.974Z,11.93
2023-05-07T04:50:00.516Z,10.57
2023-05-07T04:53:04.053Z,10.90
2023-05-07T04:56:07.296Z,10.27
2023-05-07T04:59:11.679Z,10.43
2023-05-07T05:02:14.686Z,10.37
2023-05-07T05:05:17.893Z,9.87
2023-05-07T05:08:20.928Z,9.17
2023-05-07T05:11:24.140Z,9.03
2023-05-07T05:14:28.486Z,10.33
2023-05-07T05:17:31.488Z,10.00
2023-05-07T05:20:34.446Z,9.90
2023-05-07T05:23:37.451Z,10.13
2023-05-07T05:26:40.400Z,10.93
2023-05-07T05:29:44.724Z,10.07
2023-05-07T05:32:47.642Z,11.73
2023-05-07T05:35:51.482Z,10.70
2023-05-07T05:38:54.451Z,9.73
2023-05-07T05:41:57.401Z,9.63
2023-05-07T05:45:01.915Z,9.57
2023-05-07T05:48:05.182Z,10.47
2023-05-07T05:51:08.349Z,9.77
2023-05-07T05:54:11.348Z,9.73
2023-05-07T05:57:14.465Z,9.93
2023-05-07T06:00:19.222Z,10.27
2023-05-07T06:03:22.233Z,10.27
2023-05-07T06:06:25.544Z,9.93
2023-05-07T06:09:28.595Z,9.70
2023-05-07T06:12:31.607Z,10.10
2023-05-07T06:15:35.981Z,10.07
2023-05-07T06:18:39.065Z,11.30
2023-05-07T06:21:42.441Z,10.67
2023-05-07T06:24:45.455Z,10.43
2023-05-07T06:27:48.448Z,9.07
2023-05-07T06:30:52.726Z,10.43
2023-05-07T06:33:56.293Z,9.73
2023-05-07T06:36:59.419Z,9.03
2023-05-07T06:40:02.449Z,9.43
2023-05-07T06:43:05.438Z,8.77
2023-05-07T06:46:09.826Z,9.00
2023-05-07T06:49:12.947Z,9.10
2023-05-07T06:52:15.966Z,9.07
2023-05-07T06:55:20.308Z,9.07
2023-05-07T06:58:23.257Z,8.90
2023-05-07T07:01:27.698Z,9.00
2023-05-07T07:04:31.080Z,7.80
2023-05-07T07:07:34.160Z,7.90
2023-05-07T07:10:37.504Z,7.37
2023-05-07T07:13:41.551Z,9.00
2023-05-07T07:16:47.679Z,8.23
2023-05-07T07:19:50.663Z,8.03
2023-05-07T07:22:53.633Z,7.20
2023-05-07T07:25:56.694Z,7.33
2023-05-07T07:28:59.769Z,6.50
2023-05-07T07:32:04.511Z,7.03
2023-05-07T07:35:08.951Z,7.27
2023-05-07T07:38:12.338Z,6.80
2023-05-07T07:41:15.459Z,6.00
2023-05-07T07:44:18.492Z,6.00
2023-05-07T07:47:22.839Z,5.73
2023-05-07T07:53:35.007Z,6.10
2023-05-07T07:56:38.057Z,6.23
2023-05-07T07:59:43.273Z,6.70
2023-05-07T08:02:48.312Z,6.23
2023-05-07T08:05:52.153Z,6.43
2023-05-07T08:08:55.105Z,5.83
2023-05-07T08:11:58.210Z,5.90
2023-05-07T08:15:01.165Z,4.90
2023-05-07T08:18:06.013Z,5.37
2023-05-07T08:21:09.029Z,5.50
2023-05-07T08:24:12.626Z,4.60
2023-05-07T08:27:15.651Z,4.87
2023-05-07T08:30:18.679Z,5.60
2023-05-07T08:33:23.133Z,5.67
2023-05-07T08:36:26.568Z,4.97
2023-05-07T08:39:29.693Z,5.47
2023-05-07T08:42:37.274Z,4.80
2023-05-07T08:45:41.979Z,4.67
2023-05-07T08:48:46.950Z,5.03
2023-05-07T08:51:50.122Z,5.23
2023-05-07T08:54:53.254Z,5.00
2023-05-07T08:57:56.248Z,4.53
2023-05-07T09:00:59.485Z,4.30
2023-05-07T09:04:04.397Z,5.10
2023-05-07T09:07:07.390Z,4.57
2023-05-07T09:10:11.310Z,4.33
2023-05-07T09:13:15.543Z,4.60
2023-05-07T09:16:18.779Z,5.00
2023-05-07T09:19:26.673Z,4.90
2023-05-07T09:22:29.953Z,5.30
2023-05-07T09:25:34.192Z,4.73
2023-05-07T09:28:39.749Z,4.80
2023-05-07T09:31:42.797Z,4.23
2023-05-07T09:34:48.283Z,4.57
2023-05-07T09:37:51.508Z,4.37
2023-05-07T09:41:05.042Z,4.57
2023-05-07T09:44:09.488Z,4.73
2023-05-07T09:47:17.583Z,4.80
2023-05-07T09:50:23.544Z,4.40
2023-05-07T09:53:27.689Z,4.43
2023-05-07T09:56:32.206Z,4.33
2023-05-07T09:59:36.594Z,4.00
2023-05-07T10:02:47.320Z,4.07
2023-05-07T10:05:52.257Z,3.20
2023-05-07T10:08:56.817Z,3.33
2023-05-07T10:12:01.581Z,3.37
2023-05-07T10:15:05.535Z,3.63
2023-05-07T10:18:09.573Z,3.53
2023-05-07T10:21:19.355Z,3.10
2023-05-07T10:24:27.955Z,3.40
2023-05-07T10:27:31.777Z,3.13
2023-05-07T10:30:42.429Z,3.10
2023-05-07T10:33:48.886Z,3.17
2023-05-07T10:36:54.646Z,2.93
2023-05-07T10:39:58.600Z,3.13
2023-05-07T10:43:04.343Z,5.30
2023-05-07T10:46:16.092Z,2.77
2023-05-07T10:49:19.105Z,2.90
2023-05-07T10:52:27.707Z,2.80
2023-05-07T10:55:31.170Z,2.80
2023-05-07T10:58:35.715Z,2.70
2023-05-07T11:01:56.348Z,3.00
2023-05-07T11:05:23.972Z,3.07
2023-05-07T11:08:48.351Z,2.87
2023-05-07T11:11:53.220Z,3.13
2023-05-07T11:14:57.879Z,2.60
2023-05-07T11:18:02.113Z,2.70
2023-05-07T11:21:05.368Z,2.87
2023-05-07T11:24:09.435Z,2.93
2023-05-07T11:27:14.246Z,3.23
2023-05-07T11:30:20.358Z,3.70
2023-05-07T11:33:26.359Z,3.10
2023-05-07T11:36:34.649Z,3.13
2023-05-07T11:39:37.862Z,3.20
2023-05-07T11:42:43.788Z,2.80
2023-05-07T11:45:47.436Z,3.13
2023-05-07T11:48:50.830Z,3.27
2023-05-07T11:51:53.917Z,2.90
2023-05-07T11:54:58.529Z,3.20
2023-05-07T11:58:03.040Z,4.27
2023-05-07T12:01:06.399Z,2.70
2023-05-07T12:04:09.651Z,3.07
2023-05-07T12:07:16.165Z,3.10
2023-05-07T12:10:20.785Z,3.20
2023-05-07T12:13:26.914Z,3.10
2023-05-07T12:16:30.931Z,2.80
2023-05-07T12:19:35.455Z,3.13
2023-05-07T12:22:39.730Z,3.07
2023-05-07T12:25:47.716Z,2.90
2023-05-07T12:28:52.484Z,2.80
2023-05-07T12:31:55.591Z,2.77
2023-05-07T12:34:58.664Z,3.53
2023-05-07T12:38:05.187Z,3.20
2023-05-07T12:41:10.173Z,2.90
2023-05-07T12:44:17.260Z,2.70
2023-05-07T12:47:20.571Z,3.60
2023-05-07T12:50:23.632Z,2.97
2023-05-07T12:53:28.262Z,2.67
2023-05-07T12:56:33.330Z,2.90
2023-05-07T12:59:40.771Z,2.87
2023-05-07T13:02:46.304Z,2.87
2023-05-07T13:05:49.444Z,2.60
2023-05-07T13:08:52.442Z,2.23
2023-05-07T13:11:55.615Z,3.77
2023-05-07T13:15:00.138Z,2.43
2023-05-07T13:18:03.548Z,2.70
2023-05-07T13:21:06.909Z,2.23
2023-05-07T13:24:10.428Z,2.40
2023-05-07T13:27:13.370Z,2.73
2023-05-07T13:30:18.028Z,2.90
2023-05-07T13:33:22.714Z,2.77
2023-05-07T13:36:25.731Z,2.83
2023-05-07T13:39:28.754Z,2.60
2023-05-07T13:42:33.327Z,2.60
2023-05-07T13:45:37.843Z,2.33
2023-05-07T13:48:40.878Z,2.40
2023-05-07T13:51:43.881Z,2.30
2023-05-07T13:54:46.895Z,2.80
2023-05-07T13:57:50.033Z,2.60
2023-05-07T14:00:54.406Z,3.43
2023-05-07T14:03:58.421Z,3.03
2023-05-07T14:07:01.510Z,2.27
2023-05-07T14:10:05.015Z,2.83
2023-05-07T14:13:08.732Z,2.87
2023-05-07T14:16:13.209Z,2.73
2023-05-07T14:19:16.332Z,3.10
2023-05-07T14:22:19.399Z,2.70
2023-05-07T14:25:22.428Z,2.73
2023-05-07T14:28:26.295Z,2.83
2023-05-07T14:31:31.431Z,2.90
2023-05-07T14:34:34.797Z,2.77
2023-05-07T14:37:37.837Z,2.53
2023-05-07T14:40:40.812Z,3.17
2023-05-07T14:43:44.891Z,2.97
2023-05-07T14:46:49.571Z,2.77
2023-05-07T14:49:54.006Z,5.43
2023-05-07T14:52:56.966Z,3.70
2023-05-07T14:56:01.175Z,3.30
2023-05-07T14:59:04.769Z,2.87
2023-05-07T15:02:09.694Z,3.17
2023-05-07T15:05:13.085Z,2.70
2023-05-07T15:08:16.294Z,2.47
2023-05-07T15:11:19.275Z,2.30
2023-05-07T15:14:22.873Z,2.20
2023-05-07T15:17:27.791Z,2.40
2023-05-07T15:20:31.056Z,2.50
2023-05-07T15:23:34.088Z,2.40
2023-05-07T15:26:37.139Z,2.60
2023-05-07T15:29:40.368Z,3.50
2023-05-07T15:32:44.885Z,2.43
2023-05-07T15:35:47.978Z,2.90
2023-05-07T15:38:51.030Z,2.47
2023-05-07T15:41:54.023Z,2.73
2023-05-07T15:44:57.244Z,2.50
2023-05-07T15:48:01.973Z,2.50
2023-05-07T15:51:05.571Z,2.30
2023-05-07T15:54:08.647Z,2.53
2023-05-07T15:57:12.210Z,3.63
2023-05-07T16:00:17.327Z,2.70
2023-05-07T16:03:22.941Z,2.63
2023-05-07T16:06:26.084Z,2.20
2023-05-07T16:09:29.325Z,2.63
2023-05-07T16:12:32.314Z,2.70
2023-05-07T16:15:35.985Z,2.80
2023-05-07T16:18:40.951Z,2.77
2023-05-07T16:21:44.050Z,2.67
2023-05-07T16:24:47.139Z,2.80
2023-05-07T16:27:50.214Z,2.87
2023-05-07T16:30:53.287Z,2.43
2023-05-07T16:34:01.193Z,2.60
2023-05-07T16:37:06.581Z,2.40
2023-05-07T16:40:10.619Z,3.27
2023-05-07T16:43:13.973Z,2.50
2023-05-07T16:46:17.009Z,2.70
2023-05-07T16:49:23.619Z,2.50
2023-05-07T16:52:26.833Z,2.57
2023-05-07T16:55:30.730Z,2.47
2023-05-07T16:58:34.565Z,2.57
2023-05-07T17:01:37.784Z,2.70
2023-05-07T17:04:42.286Z,2.80
2023-05-07T17:07:45.252Z,2.70
2023-05-07T17:10:48.297Z,3.20
2023-05-07T17:13:51.928Z,2.97
2023-05-07T17:16:54.990Z,2.97
2023-05-07T17:20:00.001Z,2.97
2023-05-07T17:23:03.216Z,2.83
2023-05-07T17:26:13.215Z,2.70
2023-05-07T17:29:16.206Z,2.50
2023-05-07T17:32:19.495Z,2.50
2023-05-07T17:35:24.137Z,2.70
2023-05-07T17:38:27.269Z,3.03
2023-05-07T17:41:30.315Z,2.70
2023-05-07T17:44:33.919Z,2.80
2023-05-07T17:47:36.984Z,3.03
2023-05-07T17:50:41.493Z,2.83
2023-05-07T17:53:44.561Z,4.57
2023-05-07T17:56:47.610Z,2.90
2023-05-07T17:59:50.760Z,2.80
2023-05-07T18:02:54.782Z,2.80
2023-05-07T18:06:00.257Z,2.80
2023-05-07T18:09:03.709Z,3.67
2023-05-07T18:12:07.210Z,3.60
2023-05-07T18:15:11.618Z,3.20
2023-05-07T18:18:14.793Z,2.73
2023-05-07T18:21:19.622Z,2.60
2023-05-07T18:24:22.812Z,3.20
2023-05-07T18:27:25.899Z,3.83
2023-05-07T18:30:28.942Z,3.67
2023-05-07T18:33:32.103Z,3.10
2023-05-07T18:36:53.616Z,3.23
2023-05-07T18:40:12.165Z,2.90
2023-05-07T18:43:20.446Z,3.47
2023-05-07T18:46:24.833Z,3.23
2023-05-07T18:49:27.829Z,4.20
2023-05-07T18:52:33.565Z,3.53
2023-05-07T18:55:36.814Z,3.37
2023-05-07T18:58:39.882Z,3.63
2023-05-07T19:01:43.111Z,3.03
2023-05-07T19:04:46.515Z,3.37
2023-05-07T19:07:51.128Z,3.50
2023-05-07T19:10:56.614Z,3.37
2023-05-07T19:14:01.183Z,3.80
2023-05-07T19:17:05.955Z,3.43
2023-05-07T19:20:10.815Z,4.00
2023-05-07T19:23:15.492Z,3.83
2023-05-07T19:26:19.708Z,3.13
2023-05-07T19:29:22.801Z,3.50
2023-05-07T19:32:26.523Z,3.43
2023-05-07T19:35:29.696Z,3.27
2023-05-07T19:38:34.515Z,3.20
2023-05-07T19:41:37.628Z,3.10
2023-05-07T19:44:40.852Z,3.73
2023-05-07T19:47:43.957Z,4.13
2023-05-07T19:50:49.707Z,3.87
2023-05-07T19:53:54.245Z,3.80
2023-05-07T19:56:57.552Z,4.10
2023-05-07T20:00:00.596Z,3.93
2023-05-07T20:03:03.778Z,3.50
2023-05-07T20:06:07.040Z,4.03
2023-05-07T20:09:12.877Z,3.67
2023-05-07T20:12:15.974Z,3.93
2023-05-07T20:15:19.663Z,3.07
2023-05-07T20:18:22.657Z,3.83
2023-05-07T20:21:26.916Z,3.63
2023-05-07T20:24:31.742Z,4.27
2023-05-07T20:27:35.352Z,4.13
2023-05-07T20:30:38.441Z,4.30
2023-05-07T20:33:41.914Z,4.83
2023-05-07T20:36:46.494Z,4.30
2023-05-07T20:39:51.004Z,4.67
2023-05-07T20:42:54.299Z,4.43
2023-05-07T20:46:01.572Z,5.23
2023-05-07T20:49:04.784Z,4.90
2023-05-07T20:52:07.840Z,4.90
2023-05-07T20:55:12.520Z,5.37
2023-05-07T20:58:16.552Z,4.60
2023-05-07T21:01:19.667Z,5.07
2023-05-07T21:04:22.884Z,5.07
2023-05-07T21:07:26.195Z,5.33
2023-05-07T21:10:30.891Z,5.67
2023-05-07T21:13:33.968Z,4.97
2023-05-07T21:16:37.227Z,5.00
2023-05-07T21:19:43.421Z,5.13
2023-05-07T21:22:46.492Z,5.53
2023-05-07T21:25:51.817Z,5.30
2023-05-07T21:28:54.869Z,5.20
2023-05-07T21:31:58.092Z,5.77
2023-05-07T21:35:01.510Z,5.83
2023-05-07T21:38:04.563Z,5.70
2023-05-07T21:41:09.057Z,5.83
2023-05-07T21:44:12.324Z,5.53
2023-05-07T21:47:15.460Z,5.37
2023-05-07T21:50:18.809Z,6.23
2023-05-07T21:53:21.987Z,6.30
2023-05-07T21:56:26.530Z,6.03
2023-05-07T21:59:29.652Z,6.70
2023-05-07T22:02:32.856Z,6.40
2023-05-07T22:05:49.914Z,6.33
2023-05-07T22:08:53.162Z,6.40
2023-05-07T22:11:57.700Z,6.87
2023-05-07T22:15:01.131Z,7.00
2023-05-07T22:18:04.452Z,6.93
2023-05-07T22:21:07.836Z,6.43
2023-05-07T22:24:11.707Z,6.90
2023-05-07T22:27:16.719Z,7.40
2023-05-07T22:30:20.141Z,7.43
2023-05-07T22:33:23.364Z,7.23
2023-05-07T22:36:26.558Z,7.07
2023-05-07T22:39:34.296Z,6.83
2023-05-07T22:42:38.878Z,6.47
2023-05-07T22:45:44.354Z,6.93
2023-05-07T22:48:47.443Z,7.37
2023-05-07T22:51:50.772Z,7.00
2023-05-07T22:54:53.789Z,7.00
2023-05-07T22:57:58.570Z,6.80
2023-05-07T23:01:02.563Z,7.10
2023-05-07T23:04:05.764Z,6.60
2023-05-07T23:07:09.036Z,6.93
2023-05-07T23:10:12.324Z,6.53
2023-05-07T23:13:18.081Z,6.60
2023-05-07T23:16:21.620Z,6.77
2023-05-07T23:19:25.115Z,6.53
2023-05-07T23:22:28.163Z,6.53
2023-05-07T23:25:31.239Z,7.03
2023-05-07T23:28:35.643Z,6.70
2023-05-07T23:31:38.664Z,7.03
2023-05-07T23:34:41.749Z,6.73
2023-05-07T23:37:44.947Z,6.93
2023-05-07T23:40:48.265Z,6.57
2023-05-07T23:43:52.656Z,7.10
2023-05-07T23:46:55.697Z,6.63
2023-05-07T23:49:58.710Z,6.67
2023-05-07T23:53:01.740Z,6.93
2023-05-07T23:56:05.230Z,7.57
2023-05-07T23:59:10.123Z,6.90
